Time;durP1;ratioP1;P1;durP2;ratioP2;P2;SDS_P1;SDS_P2;PMS_P1;PMS_P2;Temp;Humidity;BMP_temperature;BMP_pressure;BME280_temperature;BME280_humidity;BME280_pressure;Samples;Min_cycle;Max_cycle;Signal;HPM_P1;HPM_P2
2023/03/30 00:00:19;;;;;;;5.45;3.00;;;;;;;3.56;69.35;93657.69;5087604;28;20110;-70
2023/03/30 00:02:48;;;;;;;13.10;6.03;;;;;;;3.58;70.21;93652.47;5088381;28;20048;-71
2023/03/30 00:05:17;;;;;;;16.77;9.40;;;;;;;3.57;70.42;93649.13;5088126;28;20138;-71
2023/03/30 00:07:44;;;;;;;17.33;9.00;;;;;;;3.58;70.57;93634.69;5088051;28;20492;-70
2023/03/30 00:10:14;;;;;;;12.85;7.00;;;;;;;3.65;70.58;93652.66;5088173;28;20090;-70
2023/03/30 00:12:42;;;;;;;17.88;10.27;;;;;;;3.71;70.92;93646.94;5088327;28;20126;-71
2023/03/30 00:15:11;;;;;;;17.13;9.35;;;;;;;3.69;70.51;93652.19;5090498;28;20454;-71
2023/03/30 00:17:38;;;;;;;10.80;5.40;;;;;;;3.77;69.83;93651.41;5091922;28;20040;-70
2023/03/30 00:20:10;;;;;;;9.02;3.70;;;;;;;3.76;70.62;93649.81;5091825;28;20040;-70
2023/03/30 00:22:38;;;;;;;5.10;2.28;;;;;;;3.69;70.33;93653.91;5091627;28;20047;-71
2023/03/30 00:25:07;;;;;;;4.60;2.50;;;;;;;3.66;70.80;93654.22;5091761;28;20048;-70
2023/03/30 00:27:34;;;;;;;3.80;2.47;;;;;;;3.38;78.34;93649.41;5091556;28;20062;-71
2023/03/30 00:30:01;;;;;;;3.47;1.90;;;;;;;3.33;78.87;93627.81;5091314;28;20512;-70
2023/03/30 00:32:28;;;;;;;6.35;3.05;;;;;;;3.56;78.50;93654.38;5091924;28;20471;-70
2023/03/30 00:34:55;;;;;;;7.07;2.83;;;;;;;3.47;77.19;93653.53;5091069;28;20097;-70
2023/03/30 00:37:22;;;;;;;6.07;2.97;;;;;;;3.47;77.26;93649.25;5087990;28;20518;-70
2023/03/30 00:39:51;;;;;;;7.68;2.50;;;;;;;3.43;78.24;93649.75;5081060;28;20044;-70
2023/03/30 00:42:20;;;;;;;3.58;2.25;;;;;;;3.30;79.55;93640.81;5091357;28;20044;-70
2023/03/30 00:45:08;;;;;;;22.50;10.60;;;;;;;3.42;78.97;93638.78;5090707;28;20048;-71
2023/03/30 00:47:38;;;;;;;259.25;108.07;;;;;;;3.55;77.13;93643.41;5084694;28;20048;-71
2023/03/30 00:50:06;;;;;;;168.77;73.43;;;;;;;3.61;77.11;93642.78;5090970;28;20052;-71
2023/03/30 00:52:36;;;;;;;24.80;11.02;;;;;;;3.69;75.88;93641.22;5091173;28;20350;-71
2023/03/30 00:55:06;;;;;;;6.63;2.90;;;;;;;3.69;75.22;93644.56;5091162;28;20044;-71
2023/03/30 00:57:37;;;;;;;5.03;3.03;;;;;;;3.67;76.70;93646.47;5090963;28;20567;-70
2023/03/30 01:00:07;;;;;;;6.55;2.88;;;;;;;3.58;76.26;93643.13;5090777;28;20468;-70
2023/03/30 01:02:39;;;;;;;6.63;3.38;;;;;;;3.58;77.64;93630.41;5090898;28;20048;-70
2023/03/30 01:05:07;;;;;;;5.78;2.95;;;;;;;3.63;78.60;93642.63;5090581;28;20051;-70
2023/03/30 01:07:36;;;;;;;6.70;3.67;;;;;;;3.70;77.03;93642.81;5091126;28;20109;-70
2023/03/30 01:10:07;;;;;;;7.25;3.58;;;;;;;3.71;75.70;93634.25;5090607;28;20086;-71
2023/03/30 01:12:34;;;;;;;10.18;4.78;;;;;;;3.85;74.60;93633.59;5090887;28;20143;-70
2023/03/30 01:15:03;;;;;;;5.05;3.20;;;;;;;3.85;76.22;93636.16;5090820;28;20484;-70
2023/03/30 01:17:36;;;;;;;8.98;3.70;;;;;;;3.84;79.15;93637.09;5091377;28;20044;-71
2023/03/30 01:20:41;;;;;;;8.80;4.70;;;;;;;3.85;79.51;93632.81;5071916;28;20045;-72
2023/03/30 01:23:45;;;;;;;17.75;9.10;;;;;;;3.85;81.46;93630.28;5061633;28;20417;-72
2023/03/30 01:26:42;;;;;;;11.30;5.10;;;;;;;3.88;80.21;93640.13;5038987;28;20052;-72
2023/03/30 01:29:19;;;;;;;47.88;20.73;;;;;;;3.86;80.17;93642.84;5077118;28;20393;-72
2023/03/30 01:32:02;;;;;;;10.43;4.30;;;;;;;3.88;78.78;93640.94;5075852;28;20050;-72
2023/03/30 01:34:48;;;;;;;8.55;4.05;;;;;;;3.90;82.75;93633.16;5070745;28;20052;-71
2023/03/30 01:37:41;;;;;;;7.35;3.10;;;;;;;3.90;82.69;93637.44;5070511;28;20048;-70
2023/03/30 01:40:13;;;;;;;8.38;3.80;;;;;;;3.83;80.00;93645.69;5070543;28;20056;-70
2023/03/30 01:42:50;;;;;;;9.32;4.32;;;;;;;3.81;81.97;93641.72;5070283;28;20041;-69
2023/03/30 01:45:24;;;;;;;7.13;3.42;;;;;;;3.81;79.95;93645.06;5070319;28;20079;-72
2023/03/30 01:47:55;;;;;;;5.30;3.17;;;;;;;3.79;81.06;93641.09;5070068;28;20044;-70
2023/03/30 01:50:25;;;;;;;8.38;3.97;;;;;;;3.76;82.28;93633.75;5070403;28;20040;-74
2023/03/30 01:52:57;;;;;;;29.92;14.63;;;;;;;3.79;80.78;93639.31;5070527;28;20107;-72
2023/03/30 01:55:32;;;;;;;31.52;14.18;;;;;;;3.72;80.96;93626.47;5089543;28;20048;-72
2023/03/30 01:58:03;;;;;;;14.43;7.45;;;;;;;3.79;81.80;93646.16;5090354;28;20131;-73
2023/03/30 02:00:30;;;;;;;9.63;5.28;;;;;;;3.79;81.38;93641.84;5090746;28;20055;-72
2023/03/30 02:03:01;;;;;;;11.60;5.18;;;;;;;3.79;82.63;93641.09;5089850;28;20078;-72
2023/03/30 02:05:30;;;;;;;10.73;5.25;;;;;;;3.79;81.32;93641.84;5089813;28;20044;-72
2023/03/30 02:08:03;;;;;;;8.60;4.88;;;;;;;3.77;82.21;93641.22;5089969;28;20052;-72
2023/03/30 02:10:34;;;;;;;8.18;4.55;;;;;;;3.55;84.75;93605.31;5090130;28;20500;-71
2023/03/30 02:13:02;;;;;;;8.45;5.32;;;;;;;3.71;84.56;93631.69;5090095;28;20040;-72
2023/03/30 02:15:35;;;;;;;9.88;4.03;;;;;;;3.66;84.63;93621.22;5090010;28;20047;-71
2023/03/30 02:18:03;;;;;;;6.63;3.60;;;;;;;3.71;85.99;93652.03;5090178;28;20047;-72
2023/03/30 02:20:30;;;;;;;4.95;3.00;;;;;;;3.71;86.28;93634.25;5089816;28;20169;-72
2023/03/30 02:22:57;;;;;;;5.07;2.80;;;;;;;3.69;85.72;93631.84;5089434;28;20040;-72
2023/03/30 02:25:24;;;;;;;7.15;3.35;;;;;;;3.69;85.97;93634.38;5089637;28;20549;-72
2023/03/30 02:27:53;;;;;;;7.30;3.28;;;;;;;3.69;85.39;93629.31;5076388;28;20055;-72
2023/03/30 02:30:19;;;;;;;6.43;2.95;;;;;;;3.68;87.70;93637.88;5089793;28;20052;-72
2023/03/30 02:32:49;;;;;;;6.47;3.15;;;;;;;3.70;85.09;93632.66;5089806;28;20044;-72
2023/03/30 02:35:27;;;;;;;7.68;3.42;;;;;;;3.63;87.49;93631.66;5089426;28;20126;-72
2023/03/30 02:38:25;;;;;;;7.70;4.03;;;;;;;3.63;87.97;93631.66;5088697;28;20059;-72
2023/03/30 02:41:02;;;;;;;5.93;3.70;;;;;;;3.56;87.23;93634.06;5079366;28;20098;-72
2023/03/30 02:43:44;;;;;;;5.55;2.75;;;;;;;3.47;88.83;93634.03;5089264;28;20040;-72
2023/03/30 02:46:33;;;;;;;7.47;3.08;;;;;;;3.44;88.84;93641.97;5089309;28;20093;-72
2023/03/30 02:49:14;;;;;;;6.68;2.97;;;;;;;3.40;89.84;93640.69;5079217;28;20044;-72
2023/03/30 02:51:46;;;;;;;6.25;2.83;;;;;;;3.46;89.65;93642.59;5089390;28;20402;-72
2023/03/30 02:54:32;;;;;;;5.10;2.95;;;;;;;3.48;89.68;93642.47;5089326;28;20044;-72
2023/03/30 02:57:06;;;;;;;;;;;;;;;3.37;92.44;93645.28;5090234;28;20557;-73
2023/03/30 02:59:39;;;;;;;7.40;3.55;;;;;;;3.29;91.41;93641.75;5088963;28;19920;-72
2023/03/30 03:02:12;;;;;;;6.18;3.38;;;;;;;3.09;95.18;93638.66;5089612;28;20044;-72
2023/03/30 03:04:42;;;;;;;7.20;4.05;;;;;;;3.05;98.56;93645.78;5089142;28;20132;-72
2023/03/30 03:07:10;;;;;;;6.18;2.80;;;;;;;2.97;99.27;93640.69;5089422;28;20048;-72
2023/03/30 03:09:37;;;;;;;5.43;2.70;;;;;;;2.97;100.00;93637.34;5089283;28;20044;-71
2023/03/30 03:12:04;;;;;;;6.30;3.00;;;;;;;2.91;99.71;93638.75;5089335;28;20048;-71
2023/03/30 03:14:31;;;;;;;6.47;4.10;;;;;;;2.94;98.81;93648.59;5076312;28;20158;-71
2023/03/30 03:16:59;;;;;;;8.30;4.50;;;;;;;3.10;97.67;93647.09;5089439;28;20048;-72
2023/03/30 03:19:26;;;;;;;10.10;4.03;;;;;;;3.17;95.33;93646.31;5089404;28;20048;-71
2023/03/30 03:21:52;;;;;;;8.70;4.35;;;;;;;3.27;97.13;93641.13;5089283;28;20043;-72
2023/03/30 03:24:19;;;;;;;7.97;4.72;;;;;;;3.39;94.41;93635.75;5090385;28;20492;-72
2023/03/30 03:26:46;;;;;;;7.05;3.92;;;;;;;3.45;92.92;93633.41;5094417;28;20040;-72
2023/03/30 03:29:13;;;;;;;6.68;3.55;;;;;;;3.51;92.24;93642.13;5089051;28;20518;-72
2023/03/30 03:31:39;;;;;;;10.13;4.10;;;;;;;3.52;93.05;93648.78;5088781;28;20147;-72
2023/03/30 03:34:07;;;;;;;10.00;6.00;;;;;;;3.56;94.46;93652.63;5089033;28;20490;-73
2023/03/30 03:36:34;;;;;;;10.05;5.80;;;;;;;3.42;100.00;93641.31;5088447;28;20098;-73
2023/03/30 03:39:01;;;;;;;7.60;4.00;;;;;;;3.45;99.24;93635.94;5088914;28;20121;-72
2023/03/30 03:41:27;;;;;;;7.80;4.28;;;;;;;3.48;99.93;93635.63;5089017;28;20101;-72
2023/03/30 03:43:54;;;;;;;6.57;4.25;;;;;;;3.49;97.23;93641.50;5088904;28;20040;-72
2023/03/30 03:46:21;;;;;;;6.32;3.67;;;;;;;3.55;97.56;93650.22;5088617;28;20044;-72
2023/03/30 03:48:47;;;;;;;6.88;3.60;;;;;;;3.57;97.57;93648.34;5088812;28;20044;-72
2023/03/30 03:51:15;;;;;;;6.88;4.50;;;;;;;3.58;96.64;93650.75;5092779;28;20052;-72
2023/03/30 03:53:42;;;;;;;6.55;3.88;;;;;;;3.57;96.96;93649.13;5092857;28;20098;-73
2023/03/30 03:56:10;;;;;;;7.55;4.28;;;;;;;3.58;97.95;93645.66;5092851;28;20052;-72
2023/03/30 03:58:37;;;;;;;5.93;3.92;;;;;;;3.60;96.28;93646.28;5092750;28;20048;-72
2023/03/30 04:01:04;;;;;;;8.50;5.20;;;;;;;3.61;99.07;93649.59;5092582;28;20052;-72
2023/03/30 04:03:30;;;;;;;14.40;8.30;;;;;;;3.58;97.82;93652.47;5092790;28;20044;-72
2023/03/30 04:06:00;;;;;;;11.27;6.05;;;;;;;3.59;99.89;93652.31;5092454;28;20040;-72
2023/03/30 04:08:28;;;;;;;10.00;5.70;;;;;;;3.60;99.92;93653.91;5092233;28;20044;-72
2023/03/30 04:10:55;;;;;;;9.25;6.13;;;;;;;3.56;97.55;93645.00;5092153;28;20479;-72
2023/03/30 04:13:21;;;;;;;11.52;6.78;;;;;;;3.58;98.17;93650.75;5092501;28;20093;-72
2023/03/30 04:15:48;;;;;;;12.32;6.75;;;;;;;3.59;97.34;93648.97;5091941;28;20480;-72
2023/03/30 04:18:15;;;;;;;15.57;8.40;;;;;;;3.58;99.27;93648.19;5092341;28;20052;-72
2023/03/30 04:20:41;;;;;;;14.35;8.02;;;;;;;3.57;98.54;93651.66;5092173;28;20044;-72
2023/03/30 04:23:08;;;;;;;12.82;7.00;;;;;;;3.48;99.33;93645.78;5092234;28;20447;-72
2023/03/30 04:25:38;;;;;;;11.27;6.05;;;;;;;3.34;98.56;93626.06;5091920;28;20122;-72
2023/03/30 04:28:05;;;;;;;11.77;7.05;;;;;;;3.57;98.62;93659.28;5092326;28;20052;-72
2023/03/30 04:30:32;;;;;;;11.98;5.93;;;;;;;3.54;99.81;93659.59;5091546;28;20047;-72
2023/03/30 04:33:03;;;;;;;10.27;6.03;;;;;;;3.55;100.00;93661.19;5092150;28;20474;-72
2023/03/30 04:35:31;;;;;;;12.00;6.07;;;;;;;3.56;99.95;93659.47;5092146;28;20128;-72
2023/03/30 04:37:59;;;;;;;7.97;5.65;;;;;;;3.55;100.00;93651.03;5091787;28;20117;-72
2023/03/30 04:40:26;;;;;;;9.88;5.65;;;;;;;3.55;99.36;93658.66;5091393;28;20048;-72
2023/03/30 04:43:00;;;;;;;10.38;6.10;;;;;;;3.55;100.00;93663.72;5092076;28;20048;-72
2023/03/30 04:45:27;;;;;;;10.98;5.82;;;;;;;3.53;100.00;93655.47;5091945;28;20075;-72
2023/03/30 04:47:54;;;;;;;10.82;5.90;;;;;;;3.52;100.00;93661.50;5091258;28;20094;-71
2023/03/30 04:50:21;;;;;;;16.65;7.65;;;;;;;3.55;100.00;93665.47;5091736;28;20052;-72
2023/03/30 04:52:48;;;;;;;9.93;4.93;;;;;;;3.55;100.00;93665.47;5091413;28;20109;-72
2023/03/30 04:55:15;;;;;;;8.38;4.43;;;;;;;3.48;100.00;93662.78;5091539;28;20048;-72
2023/03/30 04:57:41;;;;;;;10.20;5.43;;;;;;;3.52;100.00;93660.72;5091457;28;20048;-72
2023/03/30 05:00:12;;;;;;;11.27;6.55;;;;;;;3.51;100.00;93662.44;5091421;28;20044;-72
2023/03/30 05:02:39;;;;;;;18.42;7.78;;;;;;;3.32;100.00;93633.03;5090692;28;20476;-72
2023/03/30 05:05:06;;;;;;;19.30;10.18;;;;;;;3.55;100.00;93662.94;5091503;28;20036;-73
2023/03/30 05:07:32;;;;;;;32.03;14.93;;;;;;;3.57;100.00;93673.75;5091397;28;20048;-72
2023/03/30 05:09:59;;;;;;;34.22;18.08;;;;;;;3.55;100.00;93668.81;5091434;28;20048;-72
2023/03/30 05:12:26;;;;;;;36.20;18.38;;;;;;;3.60;100.00;93666.59;5090930;28;20092;-70
2023/03/30 05:14:52;;;;;;;34.78;16.88;;;;;;;3.61;100.00;93663.13;5091069;28;20040;-69
2023/03/30 05:17:21;;;;;;;29.15;14.65;;;;;;;3.67;100.00;93666.78;5091267;28;20050;-69
2023/03/30 05:19:47;;;;;;;26.55;15.23;;;;;;;3.68;100.00;93653.13;5090995;28;20165;-69
2023/03/30 05:22:15;;;;;;;21.35;11.48;;;;;;;3.63;100.00;93647.72;5090863;28;20051;-69
2023/03/30 05:24:41;;;;;;;19.17;10.10;;;;;;;3.66;100.00;93654.22;5091234;28;20071;-69
2023/03/30 05:27:08;;;;;;;19.75;10.38;;;;;;;3.66;100.00;93652.47;5090829;28;20048;-69
2023/03/30 05:29:35;;;;;;;18.17;9.40;;;;;;;3.63;100.00;93652.81;5090963;28;20122;-69
2023/03/30 05:32:01;;;;;;;13.63;7.60;;;;;;;3.66;100.00;93660.09;5086656;28;20083;-69
2023/03/30 05:34:30;;;;;;;17.67;8.65;;;;;;;3.64;100.00;93669.63;5088393;28;20488;-69
2023/03/30 05:36:56;;;;;;;18.40;7.72;;;;;;;3.66;100.00;93659.31;5090450;28;20044;-69
2023/03/30 05:39:23;;;;;;;12.45;6.90;;;;;;;3.67;100.00;93665.97;5090034;28;20508;-69
2023/03/30 05:41:50;;;;;;;18.40;9.10;;;;;;;3.66;100.00;93660.09;5090475;28;20051;-69
2023/03/30 05:44:17;;;;;;;17.58;9.57;;;;;;;3.74;100.00;93667.75;5090459;28;20048;-70
2023/03/30 05:46:44;;;;;;;16.10;8.43;;;;;;;3.81;100.00;93669.66;5090447;28;20052;-69
2023/03/30 05:49:10;;;;;;;17.67;9.02;;;;;;;3.85;100.00;93670.94;5090123;28;20109;-69
2023/03/30 05:51:38;;;;;;;15.88;8.13;;;;;;;3.89;100.00;93672.19;5090386;28;20113;-69
2023/03/30 05:54:05;;;;;;;14.98;8.90;;;;;;;3.94;100.00;93661.59;5090073;28;20504;-69
2023/03/30 05:56:32;;;;;;;17.25;9.18;;;;;;;3.96;100.00;93667.28;5090532;28;20052;-69
2023/03/30 05:58:59;;;;;;;15.68;8.65;;;;;;;3.92;100.00;93653.31;5090168;28;20047;-69
2023/03/30 06:01:26;;;;;;;16.90;9.52;;;;;;;4.08;100.00;93670.34;5090432;28;20044;-69
2023/03/30 06:03:52;;;;;;;15.15;8.45;;;;;;;4.08;100.00;93670.34;5089869;28;20565;-70
2023/03/30 06:06:19;;;;;;;15.77;8.40;;;;;;;4.11;100.00;93675.91;5090294;28;20129;-70
2023/03/30 06:08:48;;;;;;;11.27;6.95;;;;;;;4.19;100.00;93684.47;5089689;28;20549;-70
2023/03/30 06:11:15;;;;;;;19.58;8.52;;;;;;;4.25;99.03;93683.84;5089828;28;20109;-69
2023/03/30 06:13:41;;;;;;;16.80;7.40;;;;;;;4.27;99.26;93676.88;5089191;28;20044;-70
2023/03/30 06:16:09;;;;;;;17.65;7.90;;;;;;;4.32;97.22;93671.28;5090100;28;20048;-70
2023/03/30 06:18:36;;;;;;;14.07;9.02;;;;;;;4.39;96.89;93673.03;5089925;28;20149;-69
2023/03/30 06:21:05;;;;;;;13.23;7.72;;;;;;;4.52;96.83;93671.75;5089582;28;20048;-69
2023/03/30 06:23:32;;;;;;;12.50;7.68;;;;;;;4.63;95.81;93671.41;5089937;28;20115;-71
2023/03/30 06:26:00;;;;;;;13.35;8.13;;;;;;;4.77;93.47;93675.06;5089530;28;20048;-69
2023/03/30 06:28:27;;;;;;;12.73;8.65;;;;;;;4.88;92.73;93675.66;5089426;28;20398;-70
2023/03/30 06:30:54;;;;;;;12.57;7.85;;;;;;;4.99;90.75;93688.06;5089092;28;20504;-73
2023/03/30 06:33:21;;;;;;;15.43;8.05;;;;;;;5.10;90.79;93684.38;5089586;28;20097;-70
2023/03/30 06:35:50;;;;;;;14.60;7.15;;;;;;;5.16;90.64;93685.47;5089687;28;20047;-70
2023/03/30 06:38:17;;;;;;;13.25;7.25;;;;;;;5.09;89.32;93670.03;5089149;28;20081;-70
2023/03/30 06:40:44;;;;;;;11.70;7.47;;;;;;;5.30;89.15;93677.16;5089837;28;20060;-70
2023/03/30 06:43:17;;;;;;;12.77;7.10;;;;;;;5.46;89.27;93685.69;5089681;28;20052;-70
2023/03/30 06:45:49;;;;;;;12.07;6.32;;;;;;;5.55;88.95;93689.00;5089781;28;20228;-70
2023/03/30 06:48:18;;;;;;;11.65;6.63;;;;;;;5.63;88.63;93694.03;5089027;28;20044;-70
2023/03/30 06:50:45;;;;;;;15.20;7.05;;;;;;;5.80;87.19;93686.31;5089531;28;20535;-70
2023/03/30 06:53:12;;;;;;;11.15;6.68;;;;;;;5.86;86.36;93693.28;5085144;28;20048;-71
2023/03/30 06:55:39;;;;;;;16.10;7.30;;;;;;;6.01;86.63;93694.16;5074742;28;20055;-71
2023/03/30 06:58:06;;;;;;;12.68;6.78;;;;;;;6.18;85.81;93695.81;5088055;28;20044;-70
2023/03/30 07:00:34;;;;;;;12.07;7.10;;;;;;;6.34;85.06;93692.38;5089525;28;20514;-70
2023/03/30 07:03:02;;;;;;;10.52;6.30;;;;;;;6.48;82.89;93696.72;5088920;28;20105;-70
2023/03/30 07:05:30;;;;;;;9.45;5.85;;;;;;;6.61;80.06;93698.69;5089553;28;20357;-70
2023/03/30 07:07:57;;;;;;;11.80;7.68;;;;;;;6.71;80.46;93695.88;5088742;28;20590;-70
2023/03/30 07:10:23;;;;;;;10.38;5.32;;;;;;;6.76;78.41;93697.94;5089165;28;20048;-70
2023/03/30 07:12:50;;;;;;;8.60;4.78;;;;;;;6.88;78.04;93703.38;5089433;28;20078;-70
2023/03/30 07:15:17;;;;;;;12.07;6.57;;;;;;;6.78;77.67;93706.19;5088943;28;20112;-70
2023/03/30 07:17:45;;;;;;;10.93;7.00;;;;;;;6.79;78.14;93706.03;5089022;28;20455;-71
2023/03/30 07:20:13;;;;;;;8.25;4.68;;;;;;;6.85;79.03;93698.66;5089186;28;20462;-70
2023/03/30 07:22:40;;;;;;;9.05;4.68;;;;;;;7.07;76.16;93712.31;5088991;28;20063;-70
2023/03/30 07:25:08;;;;;;;9.05;5.25;;;;;;;7.01;71.27;93711.25;5091433;28;20109;-70
2023/03/30 07:27:36;;;;;;;8.57;5.18;;;;;;;7.20;71.29;93709.16;5092561;28;20040;-70
2023/03/30 07:30:03;;;;;;;13.13;5.05;;;;;;;7.24;68.35;93701.91;5092409;28;20093;-70
2023/03/30 07:32:29;;;;;;;8.45;4.43;;;;;;;7.25;68.18;93688.97;5093270;28;20044;-70
2023/03/30 07:34:58;;;;;;;10.10;5.65;;;;;;;7.25;70.57;93690.72;5092434;28;20055;-70
2023/03/30 07:37:24;;;;;;;13.13;5.82;;;;;;;7.52;70.12;93696.97;5093120;28;20044;-71
2023/03/30 07:39:51;;;;;;;9.95;3.53;;;;;;;7.72;66.30;93692.09;5093037;28;20105;-71
2023/03/30 07:42:18;;;;;;;8.23;4.15;;;;;;;7.82;64.06;93691.03;5092940;28;20039;-71
2023/03/30 07:44:44;;;;;;;9.40;4.53;;;;;;;7.92;63.74;93699.19;5092883;28;20113;-71
2023/03/30 07:47:11;;;;;;;7.03;3.50;;;;;;;7.80;65.95;93698.88;5092742;28;20044;-71
2023/03/30 07:49:38;;;;;;;7.47;3.85;;;;;;;7.02;64.49;93712.03;5092891;28;20075;-71
2023/03/30 07:52:07;;;;;;;23.08;9.52;;;;;;;7.04;67.77;93707.56;5092499;28;20549;-70
2023/03/30 07:54:34;;;;;;;12.60;4.63;;;;;;;7.12;68.16;93719.47;5092622;28;20058;-71
2023/03/30 07:57:00;;;;;;;12.88;5.30;;;;;;;7.43;62.88;93703.94;5092568;28;20040;-71
2023/03/30 07:59:27;;;;;;;16.95;6.47;;;;;;;7.65;66.30;93714.25;5092479;28;20057;-71
2023/03/30 08:01:55;;;;;;;14.25;5.38;;;;;;;7.96;62.97;93705.53;5078796;28;20097;-71
2023/03/30 08:04:23;;;;;;;13.45;4.18;;;;;;;7.35;65.86;93707.38;5092724;28;20131;-71
2023/03/30 08:06:51;;;;;;;17.48;8.45;;;;;;;6.91;66.54;93705.59;5078950;28;20045;-71
2023/03/30 08:09:19;;;;;;;13.10;3.70;;;;;;;7.12;66.58;93710.03;5076298;28;20062;-72
2023/03/30 08:11:47;;;;;;;7.45;3.70;;;;;;;7.39;66.32;93707.81;5079795;28;20105;-72
2023/03/30 08:14:13;;;;;;;11.10;3.50;;;;;;;7.80;66.49;93710.84;5071708;28;20102;-71
2023/03/30 08:16:40;;;;;;;12.05;4.10;;;;;;;8.17;67.80;93709.09;5072140;28;20049;-72
2023/03/30 08:19:07;;;;;;;8.02;3.67;;;;;;;8.29;63.14;93684.59;5071609;28;20109;-73
2023/03/30 08:21:34;;;;;;;8.88;3.30;;;;;;;8.10;63.35;93719.25;5071706;28;20131;-72
2023/03/30 08:24:00;;;;;;;8.77;4.63;;;;;;;7.62;64.35;93712.03;5072148;28;20052;-72
2023/03/30 08:26:29;;;;;;;14.40;5.70;;;;;;;7.36;64.65;93708.16;5071701;28;20090;-72
2023/03/30 08:28:56;;;;;;;10.60;3.80;;;;;;;7.87;63.84;93709.19;5076402;28;20036;-71
2023/03/30 08:31:23;;;;;;;14.90;6.22;;;;;;;8.10;62.92;93695.44;5090564;28;20056;-71
2023/03/30 08:33:50;;;;;;;12.05;5.05;;;;;;;8.09;62.01;93698.94;5092003;28;20048;-71
2023/03/30 08:36:18;;;;;;;15.00;5.28;;;;;;;8.28;62.08;93698.34;5090861;28;20048;-71
2023/03/30 08:38:45;;;;;;;10.43;4.07;;;;;;;8.60;63.40;93703.19;5091313;28;20044;-71
2023/03/30 08:41:47;;;;;;;53.42;21.15;;;;;;;8.85;62.32;93679.75;5091884;28;20051;-71
2023/03/30 08:44:22;;;;;;;8.25;4.65;;;;;;;8.84;58.68;93706.31;5091581;28;20047;-71
2023/03/30 08:46:51;;;;;;;9.50;3.83;;;;;;;8.58;58.83;93712.81;5091656;28;20048;-72
2023/03/30 08:49:21;;;;;;;9.10;4.97;;;;;;;8.81;59.18;93714.38;5091694;28;20439;-71
2023/03/30 08:51:50;;;;;;;10.57;5.07;;;;;;;8.85;59.79;93715.59;5090523;28;20538;-72
2023/03/30 08:54:19;;;;;;;7.03;3.78;;;;;;;8.94;57.02;93716.25;5091351;28;20048;-71
2023/03/30 08:56:59;;;;;;;7.65;4.05;;;;;;;8.89;54.88;93705.78;5091158;28;20085;-71
2023/03/30 08:59:36;;;;;;;6.93;3.97;;;;;;;8.78;56.65;93697.63;5091301;28;20746;-71
2023/03/30 09:02:11;;;;;;;8.80;3.97;;;;;;;8.85;56.02;93702.78;5091075;28;20040;-71
2023/03/30 09:04:55;;;;;;;9.82;4.35;;;;;;;9.04;58.42;93706.47;5091550;28;20470;-71
2023/03/30 09:07:25;;;;;;;17.05;6.47;;;;;;;9.12;55.26;93695.25;5091029;28;20119;-71
2023/03/30 09:09:53;;;;;;;15.07;7.07;;;;;;;9.43;60.51;93690.69;5073551;28;20041;-71
2023/03/30 09:12:33;;;;;;;136.95;53.38;;;;;;;9.71;55.63;93685.47;5070777;28;20609;-73
2023/03/30 09:15:08;;;;;;;25.73;11.02;;;;;;;9.82;53.77;93665.38;5086131;28;20139;-72
2023/03/30 09:17:44;;;;;;;34.80;15.27;;;;;;;10.36;56.46;93686.00;5092375;28;20150;-72
2023/03/30 09:20:23;;;;;;;21.70;10.00;;;;;;;10.84;57.30;93677.38;5092436;28;21179;-72
2023/03/30 09:22:52;;;;;;;18.10;7.63;;;;;;;11.14;53.90;93676.91;5091944;28;20056;-72
2023/03/30 09:25:24;;;;;;;5.20;2.15;;;;;;;11.22;49.30;93681.06;5091690;28;20048;-73
2023/03/30 09:28:00;;;;;;;7.03;3.33;;;;;;;11.42;49.96;93672.47;5091810;28;20040;-73
2023/03/30 09:30:32;;;;;;;5.90;2.75;;;;;;;11.46;49.94;93673.66;5091427;28;20051;-72
2023/03/30 09:33:02;;;;;;;4.60;2.15;;;;;;;11.80;48.26;93658.09;5082013;28;20076;-72
2023/03/30 09:35:38;;;;;;;9.65;2.47;;;;;;;12.18;50.50;93665.06;5086615;28;20105;-72
2023/03/30 09:38:04;;;;;;;11.02;4.50;;;;;;;12.47;46.08;93668.00;5091005;28;20101;-72
2023/03/30 09:40:45;;;;;;;11.85;4.30;;;;;;;12.46;49.27;93666.44;5090671;28;20093;-72
2023/03/30 09:43:19;;;;;;;10.63;5.65;;;;;;;12.59;46.07;93652.66;5090914;28;20048;-72
2023/03/30 09:45:46;;;;;;;7.80;2.40;;;;;;;12.26;48.24;93636.44;5090788;28;20191;-72
2023/03/30 09:48:15;;;;;;;5.32;2.55;;;;;;;11.48;48.47;93657.03;5089491;28;20044;-72
2023/03/30 09:50:45;;;;;;;5.00;2.15;;;;;;;11.37;47.91;93652.53;5089962;28;20059;-72
2023/03/30 09:53:20;;;;;;;3.10;1.67;;;;;;;11.17;50.00;93668.81;5085715;28;20044;-73
2023/03/30 09:55:58;;;;;;;3.35;1.83;;;;;;;11.07;49.57;93666.63;5088800;28;20055;-72
2023/03/30 09:58:30;;;;;;;3.67;1.60;;;;;;;10.75;48.81;93652.84;5089930;28;20512;-72
2023/03/30 10:01:07;;;;;;;5.13;2.25;;;;;;;10.34;50.60;93654.59;5090107;28;20044;-72
2023/03/30 10:03:34;;;;;;;5.25;2.00;;;;;;;10.61;51.79;93639.22;5090057;28;20141;-72
2023/03/30 10:06:04;;;;;;;10.77;4.15;;;;;;;10.38;50.43;93653.22;5090050;28;20044;-72
2023/03/30 10:08:32;;;;;;;6.03;2.80;;;;;;;10.73;51.60;93649.72;5090115;28;20048;-71
2023/03/30 10:11:01;;;;;;;20.58;6.63;;;;;;;11.06;51.43;93631.66;5089803;28;20496;-72
2023/03/30 10:13:33;;;;;;;6.40;3.28;;;;;;;11.94;54.10;93633.84;5090314;28;20113;-72
2023/03/30 10:16:05;;;;;;;6.07;2.08;;;;;;;12.42;48.14;93626.63;5090110;28;20044;-72
2023/03/30 10:18:39;;;;;;;4.00;1.80;;;;;;;11.25;47.87;93634.34;5089948;28;20056;-72
2023/03/30 10:21:15;;;;;;;4.18;1.83;;;;;;;11.58;47.90;93630.09;5089847;28;20051;-72
2023/03/30 10:23:44;;;;;;;4.43;1.50;;;;;;;11.91;47.57;93618.84;5090094;28;20101;-71
2023/03/30 10:26:14;;;;;;;3.70;2.00;;;;;;;11.96;46.43;93625.91;5090144;28;20455;-71
2023/03/30 10:28:52;;;;;;;9.20;3.17;;;;;;;12.41;48.54;93615.53;5089647;28;20119;-72
2023/03/30 10:31:23;;;;;;;5.50;2.28;;;;;;;12.85;47.92;93614.75;5089373;28;20052;-72
2023/03/30 10:33:57;;;;;;;5.88;2.35;;;;;;;13.09;46.82;93620.06;5089279;28;20048;-72
2023/03/30 10:36:29;;;;;;;3.33;1.67;;;;;;;13.30;43.20;93612.91;5089564;28;20047;-72
2023/03/30 10:39:09;;;;;;;6.45;2.45;;;;;;;13.54;45.88;93607.88;5089163;28;20382;-72
2023/03/30 10:41:38;;;;;;;4.70;2.38;;;;;;;13.50;45.60;93597.22;5089261;28;20534;-72
2023/03/30 10:44:19;;;;;;;3.65;1.80;;;;;;;13.66;41.79;93615.69;5089776;28;20047;-72
2023/03/30 10:46:49;;;;;;;6.55;5.63;;;;;;;13.78;44.77;93605.41;5089393;28;20454;-72
2023/03/30 10:49:30;;;;;;;4.88;2.40;;;;;;;13.96;44.74;93602.75;5083415;28;20045;-72
2023/03/30 10:52:08;;;;;;;5.13;2.17;;;;;;;13.87;43.09;93593.75;5085568;28;20051;-72
2023/03/30 10:54:41;;;;;;;3.17;1.85;;;;;;;14.09;43.62;93585.50;5088538;28;20044;-72
2023/03/30 10:57:13;;;;;;;4.97;3.08;;;;;;;14.35;44.35;93592.03;5088983;28;20474;-72
2023/03/30 10:59:58;;;;;;;3.60;1.65;;;;;;;14.37;43.19;93578.91;5088572;28;20104;-72
2023/03/30 11:02:39;;;;;;;4.25;1.73;;;;;;;14.50;44.73;93570.16;5082426;28;20052;-72
2023/03/30 11:05:12;;;;;;;5.68;2.50;;;;;;;14.88;44.46;93576.69;5088092;28;20036;-73
2023/03/30 11:07:44;;;;;;;3.67;1.63;;;;;;;14.19;39.52;93565.06;5085248;28;20491;-72
2023/03/30 11:10:15;;;;;;;3.10;2.00;;;;;;;13.90;41.41;93567.50;5098678;28;20094;-72
2023/03/30 11:12:46;;;;;;;5.88;1.73;;;;;;;14.16;41.51;93568.88;5089011;28;20087;-72
2023/03/30 11:15:19;;;;;;;4.85;2.10;;;;;;;13.69;41.86;93538.59;5089100;28;20105;-72
2023/03/30 11:17:55;;;;;;;6.30;1.55;;;;;;;13.60;43.43;93545.06;5089309;28;20074;-72
2023/03/30 11:20:27;;;;;;;7.30;2.25;;;;;;;14.14;44.49;93533.94;5088923;28;20089;-72
2023/03/30 11:23:09;;;;;;;14.57;6.03;;;;;;;14.78;43.97;93556.56;5077472;28;20044;-72
2023/03/30 11:25:44;;;;;;;7.45;3.05;;;;;;;15.25;43.56;93546.31;5068882;28;20060;-72
2023/03/30 11:28:21;;;;;;;5.63;2.58;;;;;;;15.73;43.43;93550.31;5075547;28;20389;-73
2023/03/30 11:30:51;;;;;;;29.33;12.02;;;;;;;16.01;41.43;93540.16;5075071;28;20098;-72
2023/03/30 11:33:25;;;;;;;6.50;2.30;;;;;;;15.77;40.51;93541.06;5089028;28;20044;-72
2023/03/30 11:35:56;;;;;;;4.20;1.35;;;;;;;14.79;39.84;93534.06;5080780;28;20045;-72
2023/03/30 11:38:28;;;;;;;5.03;1.80;;;;;;;14.23;41.63;93534.41;5080270;28;20099;-72
2023/03/30 11:41:00;;;;;;;5.55;2.63;;;;;;;14.70;40.93;93533.59;5079963;28;20056;-72
2023/03/30 11:43:30;;;;;;;8.18;2.42;;;;;;;14.95;42.61;93524.84;5088975;28;20044;-72
2023/03/30 11:46:03;;;;;;;9.23;3.88;;;;;;;15.32;43.04;93510.75;5088589;28;20097;-72
2023/03/30 11:49:03;;;;;;;6.43;2.70;;;;;;;15.35;41.90;93516.25;5089161;28;20040;-72